PWSweather.com
Personal Weather Stations
Station Observations
79674
AfterstegDE 79674

AfterstegDE 79674

Lat: 47.84344, Lon: 7.92844

Elevation: 809

Station Type: Davis Vantage 2 Aktive

Latest ConditionsUpdated 10:07:03 AM GMT+01:01 Friday, Feb 22, 2019
Currently Today's Max Today's Min Today's Average
Temperature 42.3°F5.7°C 42.4°F5.8°C 38.3°F3.5°C 39.7°F4.3°C
Dew Point 38.3°F3.5°C 38.8°F3.8°C 34.7°F1.5°C 36.5°F2.5°C
Winds Calm Calm Calm -Calm - - Calm Calm
Wind Gusts -- -- - -
Humidity 86% 90% 86% 88%
Pressure 30.54 in1034.2 mb 30.54 in1034.2 mb 30.49 in1032.5 mb -
Hour Temp Dew Point Humidity Winds Wind Gusts Pressure Precip Precip Rate Daily Precip Total
10:07 AM 42.3°F5.7°C 38.3°F3.5°C 86% Calm Calm -- 30.54 in1034.2 mb - 0.00 in0.0 mm 0.00 in0.0 mm
10:02 AM 42.3°F5.7°C 38.3°F3.5°C 86% Calm Calm -- 30.54 in1034.2 mb - 0.00 in0.0 mm 0.00 in0.0 mm
09:57 AM 42.4°F5.8°C 38.5°F3.6°C 86% Calm Calm -- 30.54 in1034.2 mb - 0.00 in0.0 mm 0.00 in0.0 mm
09:52 AM 42.3°F5.7°C 38.7°F3.7°C 87% Calm Calm -- 30.54 in1034.2 mb - 0.00 in0.0 mm 0.00 in0.0 mm
09:47 AM 42.1°F5.6°C 38.5°F3.6°C 87% Calm Calm -- 30.54 in1034.2 mb - 0.00 in0.0 mm 0.00 in0.0 mm
09:42 AM 42.1°F5.6°C 38.8°F3.8°C 88% Calm Calm -- 30.54 in1034.2 mb - 0.00 in0.0 mm 0.00 in0.0 mm
09:37 AM 41.7°F5.4°C 38.5°F3.6°C 88% Calm Calm -- 30.54 in1034.2 mb - 0.00 in0.0 mm 0.00 in0.0 mm
09:32 AM 41.5°F5.3°C 38.3°F3.5°C 88% Calm Calm -- 30.54 in1034.2 mb - 0.00 in0.0 mm 0.00 in0.0 mm
09:27 AM 41.5°F5.3°C 38.3°F3.5°C 88% Calm Calm -- 30.54 in1034.2 mb - 0.00 in0.0 mm 0.00 in0.0 mm
09:22 AM 41.4°F5.2°C 38.3°F3.5°C 89% Calm Calm -- 30.53 in1033.9 mb - 0.00 in0.0 mm 0.00 in0.0 mm
09:17 AM 40.8°F4.9°C 37.8°F3.2°C 89% Calm Calm -- 30.53 in1033.9 mb - 0.00 in0.0 mm 0.00 in0.0 mm
09:12 AM 40.6°F4.8°C 37.6°F3.1°C 89% Calm Calm -- 30.53 in1033.9 mb - 0.00 in0.0 mm 0.00 in0.0 mm
09:07 AM 40.5°F4.7°C 37.4°F3.0°C 89% Calm Calm -- 30.53 in1033.9 mb - 0.00 in0.0 mm 0.00 in0.0 mm
09:02 AM 40.6°F4.8°C 37.6°F3.1°C 89% Calm Calm -- 30.53 in1033.9 mb - 0.00 in0.0 mm 0.00 in0.0 mm
08:57 AM 40.3°F4.6°C 37.2°F2.9°C 89% Calm Calm -- 30.53 in1033.9 mb - 0.00 in0.0 mm 0.00 in0.0 mm
08:52 AM 39.9°F4.4°C 36.9°F2.7°C 89% Calm Calm -- 30.53 in1033.9 mb - 0.00 in0.0 mm 0.00 in0.0 mm
08:47 AM 39.9°F4.4°C 36.9°F2.7°C 89% Calm Calm -- 30.53 in1033.9 mb - 0.00 in0.0 mm 0.00 in0.0 mm
08:42 AM 39.7°F4.3°C 36.7°F2.6°C 89% Calm Calm -- 30.53 in1033.9 mb - 0.00 in0.0 mm 0.00 in0.0 mm
08:37 AM 40.3°F4.6°C 37.2°F2.9°C 89% Calm Calm -- 30.53 in1033.9 mb - 0.00 in0.0 mm 0.00 in0.0 mm
08:32 AM 40.3°F4.6°C 37.2°F2.9°C 89% Calm Calm -- 30.53 in1033.9 mb - 0.00 in0.0 mm 0.00 in0.0 mm
08:27 AM 40.1°F4.5°C 37.0°F2.8°C 89% Calm Calm -- 30.53 in1033.9 mb - 0.00 in0.0 mm 0.00 in0.0 mm
08:22 AM 40.5°F4.7°C 37.4°F3.0°C 89% Calm Calm -- 30.53 in1033.9 mb - 0.00 in0.0 mm 0.00 in0.0 mm
08:17 AM 40.1°F4.5°C 37.4°F3.0°C 90% Calm Calm -- 30.53 in1033.9 mb - 0.00 in0.0 mm 0.00 in0.0 mm
08:12 AM 40.3°F4.6°C 37.2°F2.9°C 89% Calm Calm -- 30.53 in1033.9 mb - 0.00 in0.0 mm 0.00 in0.0 mm
08:07 AM 40.1°F4.5°C 37.0°F2.8°C 89% Calm Calm -- 30.52 in1033.5 mb - 0.00 in0.0 mm 0.00 in0.0 mm
08:02 AM 39.9°F4.4°C 36.9°F2.7°C 89% Calm Calm -- 30.52 in1033.5 mb - 0.00 in0.0 mm 0.00 in0.0 mm
07:57 AM 39.7°F4.3°C 36.7°F2.6°C 89% Calm Calm -- 30.52 in1033.5 mb - 0.00 in0.0 mm 0.00 in0.0 mm
07:52 AM 39.6°F4.2°C 36.5°F2.5°C 89% Calm Calm -- 30.52 in1033.5 mb - 0.00 in0.0 mm 0.00 in0.0 mm
07:47 AM 39.6°F4.2°C 36.5°F2.5°C 89% Calm Calm -- 30.52 in1033.5 mb - 0.00 in0.0 mm 0.00 in0.0 mm
07:42 AM 39.6°F4.2°C 36.5°F2.5°C 89% Calm Calm -- 30.52 in1033.5 mb - 0.00 in0.0 mm 0.00 in0.0 mm
07:37 AM 39.6°F4.2°C 36.5°F2.5°C 89% Calm Calm -- 30.52 in1033.5 mb - 0.00 in0.0 mm 0.00 in0.0 mm
07:32 AM 39.6°F4.2°C 36.5°F2.5°C 89% Calm Calm -- 30.52 in1033.5 mb - 0.00 in0.0 mm 0.00 in0.0 mm
07:27 AM 39.7°F4.3°C 36.7°F2.6°C 89% Calm Calm -- 30.52 in1033.5 mb - 0.00 in0.0 mm 0.00 in0.0 mm
07:22 AM 39.6°F4.2°C 36.5°F2.5°C 89% Calm Calm -- 30.51 in1033.2 mb - 0.00 in0.0 mm 0.00 in0.0 mm
07:17 AM 39.7°F4.3°C 36.7°F2.6°C 89% Calm Calm -- 30.51 in1033.2 mb - 0.00 in0.0 mm 0.00 in0.0 mm
07:12 AM 39.6°F4.2°C 36.5°F2.5°C 89% Calm Calm -- 30.51 in1033.2 mb - 0.00 in0.0 mm 0.00 in0.0 mm
07:07 AM 39.6°F4.2°C 36.5°F2.5°C 89% Calm Calm -- 30.51 in1033.2 mb - 0.00 in0.0 mm 0.00 in0.0 mm
07:02 AM 39.6°F4.2°C 36.5°F2.5°C 89% Calm Calm -- 30.51 in1033.2 mb - 0.00 in0.0 mm 0.00 in0.0 mm
06:57 AM 39.6°F4.2°C 36.5°F2.5°C 89% Calm Calm -- 30.51 in1033.2 mb - 0.00 in0.0 mm 0.00 in0.0 mm
06:52 AM 39.6°F4.2°C 36.5°F2.5°C 89% Calm Calm -- 30.51 in1033.2 mb - 0.00 in0.0 mm 0.00 in0.0 mm
06:47 AM 39.6°F4.2°C 36.5°F2.5°C 89% Calm Calm -- 30.51 in1033.2 mb - 0.00 in0.0 mm 0.00 in0.0 mm
06:42 AM 39.4°F4.1°C 36.5°F2.5°C 89% Calm Calm -- 30.51 in1033.2 mb - 0.00 in0.0 mm 0.00 in0.0 mm
06:37 AM 39.6°F4.2°C 36.5°F2.5°C 89% Calm Calm -- 30.50 in1032.8 mb - 0.00 in0.0 mm 0.00 in0.0 mm
06:32 AM 39.7°F4.3°C 36.7°F2.6°C 89% Calm Calm -- 30.50 in1032.8 mb - 0.00 in0.0 mm 0.00 in0.0 mm
06:27 AM 39.6°F4.2°C 36.5°F2.5°C 89% Calm Calm -- 30.51 in1033.2 mb - 0.00 in0.0 mm 0.00 in0.0 mm
06:22 AM 39.6°F4.2°C 36.5°F2.5°C 89% Calm Calm -- 30.51 in1033.2 mb - 0.00 in0.0 mm 0.00 in0.0 mm
06:17 AM 39.4°F4.1°C 36.5°F2.5°C 89% Calm Calm -- 30.50 in1032.8 mb - 0.00 in0.0 mm 0.00 in0.0 mm
06:12 AM 39.4°F4.1°C 36.5°F2.5°C 89% Calm Calm -- 30.50 in1032.8 mb - 0.00 in0.0 mm 0.00 in0.0 mm
06:07 AM 39.6°F4.2°C 36.5°F2.5°C 89% Calm Calm -- 30.51 in1033.2 mb - 0.00 in0.0 mm 0.00 in0.0 mm
06:02 AM 39.6°F4.2°C 36.5°F2.5°C 89% Calm Calm -- 30.50 in1032.8 mb - 0.00 in0.0 mm 0.00 in0.0 mm
05:57 AM 39.6°F4.2°C 36.5°F2.5°C 89% Calm Calm -- 30.50 in1032.8 mb - 0.00 in0.0 mm 0.00 in0.0 mm
05:52 AM 39.7°F4.3°C 36.7°F2.6°C 89% Calm Calm -- 30.51 in1033.2 mb - 0.00 in0.0 mm 0.00 in0.0 mm
05:47 AM 39.7°F4.3°C 36.7°F2.6°C 89% Calm Calm -- 30.50 in1032.8 mb - 0.00 in0.0 mm 0.00 in0.0 mm
05:42 AM 39.6°F4.2°C 36.5°F2.5°C 89% Calm Calm -- 30.51 in1033.2 mb - 0.00 in0.0 mm 0.00 in0.0 mm
05:37 AM 39.6°F4.2°C 36.5°F2.5°C 89% Calm Calm -- 30.51 in1033.2 mb - 0.00 in0.0 mm 0.00 in0.0 mm
05:32 AM 39.6°F4.2°C 36.5°F2.5°C 89% Calm Calm -- 30.50 in1032.8 mb - 0.00 in0.0 mm 0.00 in0.0 mm
05:27 AM 39.6°F4.2°C 36.5°F2.5°C 89% Calm Calm -- 30.50 in1032.8 mb - 0.00 in0.0 mm 0.00 in0.0 mm
05:22 AM 39.6°F4.2°C 36.5°F2.5°C 89% Calm Calm -- 30.50 in1032.8 mb - 0.00 in0.0 mm 0.00 in0.0 mm
05:17 AM 39.6°F4.2°C 36.9°F2.7°C 90% Calm Calm -- 30.49 in1032.5 mb - 0.00 in0.0 mm 0.00 in0.0 mm
05:12 AM 39.2°F4.0°C 36.3°F2.4°C 89% Calm Calm -- 30.50 in1032.8 mb - 0.00 in0.0 mm 0.00 in0.0 mm
05:07 AM 39.4°F4.1°C 36.5°F2.5°C 89% Calm Calm -- 30.50 in1032.8 mb - 0.00 in0.0 mm 0.00 in0.0 mm
05:02 AM 39.4°F4.1°C 36.5°F2.5°C 89% Calm Calm -- 30.49 in1032.5 mb - 0.00 in0.0 mm 0.00 in0.0 mm
04:57 AM 39.6°F4.2°C 36.5°F2.5°C 89% Calm Calm -- 30.49 in1032.5 mb - 0.00 in0.0 mm 0.00 in0.0 mm
04:52 AM 39.9°F4.4°C 36.9°F2.7°C 89% Calm Calm -- 30.50 in1032.8 mb - 0.00 in0.0 mm 0.00 in0.0 mm
04:47 AM 39.9°F4.4°C 36.9°F2.7°C 89% Calm Calm -- 30.49 in1032.5 mb - 0.00 in0.0 mm 0.00 in0.0 mm
04:42 AM 39.7°F4.3°C 36.7°F2.6°C 89% Calm Calm -- 30.50 in1032.8 mb - 0.00 in0.0 mm 0.00 in0.0 mm
04:37 AM 39.7°F4.3°C 36.7°F2.6°C 89% Calm Calm -- 30.50 in1032.8 mb - 0.00 in0.0 mm 0.00 in0.0 mm
04:32 AM 39.7°F4.3°C 37.0°F2.8°C 90% Calm Calm -- 30.50 in1032.8 mb - 0.00 in0.0 mm 0.00 in0.0 mm
04:27 AM 39.4°F4.1°C 36.5°F2.5°C 89% Calm Calm -- 30.49 in1032.5 mb - 0.00 in0.0 mm 0.00 in0.0 mm
04:22 AM 39.4°F4.1°C 36.5°F2.5°C 89% Calm Calm -- 30.49 in1032.5 mb - 0.00 in0.0 mm 0.00 in0.0 mm
04:17 AM 39.7°F4.3°C 36.7°F2.6°C 89% Calm Calm -- 30.49 in1032.5 mb - 0.00 in0.0 mm 0.00 in0.0 mm
04:12 AM 39.7°F4.3°C 36.7°F2.6°C 89% Calm Calm -- 30.50 in1032.8 mb - 0.00 in0.0 mm 0.00 in0.0 mm
04:07 AM 39.6°F4.2°C 36.5°F2.5°C 89% Calm Calm -- 30.50 in1032.8 mb - 0.00 in0.0 mm 0.00 in0.0 mm
04:02 AM 39.6°F4.2°C 36.5°F2.5°C 89% Calm Calm -- 30.50 in1032.8 mb - 0.00 in0.0 mm 0.00 in0.0 mm
03:57 AM 39.6°F4.2°C 36.5°F2.5°C 89% Calm Calm -- 30.50 in1032.8 mb - 0.00 in0.0 mm 0.00 in0.0 mm
03:52 AM 39.6°F4.2°C 36.5°F2.5°C 89% Calm Calm -- 30.50 in1032.8 mb - 0.00 in0.0 mm 0.00 in0.0 mm
03:47 AM 39.7°F4.3°C 36.7°F2.6°C 89% Calm Calm -- 30.50 in1032.8 mb - 0.00 in0.0 mm 0.00 in0.0 mm
03:42 AM 39.7°F4.3°C 36.7°F2.6°C 89% Calm Calm -- 30.50 in1032.8 mb - 0.00 in0.0 mm 0.00 in0.0 mm
03:37 AM 39.6°F4.2°C 36.5°F2.5°C 89% Calm Calm -- 30.50 in1032.8 mb - 0.00 in0.0 mm 0.00 in0.0 mm
03:32 AM 39.6°F4.2°C 36.3°F2.4°C 88% Calm Calm -- 30.51 in1033.2 mb - 0.00 in0.0 mm 0.00 in0.0 mm
03:27 AM 39.6°F4.2°C 36.3°F2.4°C 88% Calm Calm -- 30.51 in1033.2 mb - 0.00 in0.0 mm 0.00 in0.0 mm
03:22 AM 39.7°F4.3°C 36.5°F2.5°C 88% Calm Calm -- 30.51 in1033.2 mb - 0.00 in0.0 mm 0.00 in0.0 mm
03:17 AM 39.9°F4.4°C 36.7°F2.6°C 88% Calm Calm -- 30.51 in1033.2 mb - 0.00 in0.0 mm 0.00 in0.0 mm
03:12 AM 39.9°F4.4°C 36.7°F2.6°C 88% Calm Calm -- 30.51 in1033.2 mb - 0.00 in0.0 mm 0.00 in0.0 mm
03:07 AM 39.7°F4.3°C 36.5°F2.5°C 88% Calm Calm -- 30.51 in1033.2 mb - 0.00 in0.0 mm 0.00 in0.0 mm
03:02 AM 39.7°F4.3°C 36.5°F2.5°C 88% Calm Calm -- 30.51 in1033.2 mb - 0.00 in0.0 mm 0.00 in0.0 mm
02:57 AM 39.6°F4.2°C 36.3°F2.4°C 88% Calm Calm -- 30.51 in1033.2 mb - 0.00 in0.0 mm 0.00 in0.0 mm
02:52 AM 39.6°F4.2°C 36.3°F2.4°C 88% Calm Calm -- 30.50 in1032.8 mb - 0.00 in0.0 mm 0.00 in0.0 mm
02:47 AM 39.6°F4.2°C 36.3°F2.4°C 88% Calm Calm -- 30.51 in1033.2 mb - 0.00 in0.0 mm 0.00 in0.0 mm
02:42 AM 39.6°F4.2°C 36.3°F2.4°C 88% Calm Calm -- 30.50 in1032.8 mb - 0.00 in0.0 mm 0.00 in0.0 mm
02:37 AM 39.6°F4.2°C 36.5°F2.5°C 89% Calm Calm -- 30.50 in1032.8 mb - 0.00 in0.0 mm 0.00 in0.0 mm
02:32 AM 39.0°F3.9°C 35.8°F2.1°C 88% Calm Calm -- 30.50 in1032.8 mb - 0.00 in0.0 mm 0.00 in0.0 mm
02:27 AM 39.0°F3.9°C 35.8°F2.1°C 88% Calm Calm -- 30.50 in1032.8 mb - 0.00 in0.0 mm 0.00 in0.0 mm
02:22 AM 39.0°F3.9°C 35.8°F2.1°C 88% Calm Calm -- 30.50 in1032.8 mb - 0.00 in0.0 mm 0.00 in0.0 mm
02:17 AM 39.0°F3.9°C 35.8°F2.1°C 88% Calm Calm -- 30.50 in1032.8 mb - 0.00 in0.0 mm 0.00 in0.0 mm
02:12 AM 39.0°F3.9°C 35.8°F2.1°C 88% Calm Calm -- 30.50 in1032.8 mb - 0.00 in0.0 mm 0.00 in0.0 mm
02:07 AM 38.8°F3.8°C 35.6°F2.0°C 88% Calm Calm -- 30.50 in1032.8 mb - 0.00 in0.0 mm 0.00 in0.0 mm
02:02 AM 38.7°F3.7°C 35.4°F1.9°C 88% Calm Calm -- 30.50 in1032.8 mb - 0.00 in0.0 mm 0.00 in0.0 mm
01:57 AM 38.7°F3.7°C 35.4°F1.9°C 88% Calm Calm -- 30.50 in1032.8 mb - 0.00 in0.0 mm 0.00 in0.0 mm
01:52 AM 38.7°F3.7°C 35.4°F1.9°C 88% Calm Calm -- 30.49 in1032.5 mb - 0.00 in0.0 mm 0.00 in0.0 mm
01:47 AM 38.7°F3.7°C 35.1°F1.7°C 87% Calm Calm -- 30.49 in1032.5 mb - 0.00 in0.0 mm 0.00 in0.0 mm
01:42 AM 38.8°F3.8°C 35.2°F1.8°C 87% Calm Calm -- 30.50 in1032.8 mb - 0.00 in0.0 mm 0.00 in0.0 mm
01:37 AM 39.0°F3.9°C 35.4°F1.9°C 87% Calm Calm -- 30.50 in1032.8 mb - 0.00 in0.0 mm 0.00 in0.0 mm
01:32 AM 39.6°F4.2°C 36.0°F2.2°C 87% Calm Calm -- 30.49 in1032.5 mb - 0.00 in0.0 mm 0.00 in0.0 mm
01:27 AM 39.4°F4.1°C 36.1°F2.3°C 88% Calm Calm -- 30.50 in1032.8 mb - 0.00 in0.0 mm 0.00 in0.0 mm
01:22 AM 39.2°F4.0°C 36.0°F2.2°C 88% Calm Calm -- 30.50 in1032.8 mb - 0.00 in0.0 mm 0.00 in0.0 mm
01:17 AM 38.8°F3.8°C 35.6°F2.0°C 88% Calm Calm -- 30.50 in1032.8 mb - 0.00 in0.0 mm 0.00 in0.0 mm
01:12 AM 38.8°F3.8°C 35.6°F2.0°C 88% Calm Calm -- 30.50 in1032.8 mb - 0.00 in0.0 mm 0.00 in0.0 mm
01:07 AM 38.7°F3.7°C 35.4°F1.9°C 88% Calm Calm -- 30.50 in1032.8 mb - 0.00 in0.0 mm 0.00 in0.0 mm
01:02 AM 38.5°F3.6°C 35.2°F1.8°C 88% Calm Calm -- 30.49 in1032.5 mb - 0.00 in0.0 mm 0.00 in0.0 mm
12:57 AM 38.3°F3.5°C 34.7°F1.5°C 87% Calm Calm -- 30.49 in1032.5 mb - 0.00 in0.0 mm 0.00 in0.0 mm
12:52 AM 38.7°F3.7°C 35.1°F1.7°C 87% Calm Calm -- 30.49 in1032.5 mb - 0.00 in0.0 mm 0.00 in0.0 mm
12:47 AM 38.7°F3.7°C 35.1°F1.7°C 87% Calm Calm -- 30.49 in1032.5 mb - 0.00 in0.0 mm 0.00 in0.0 mm
12:42 AM 38.7°F3.7°C 35.1°F1.7°C 87% Calm Calm -- 30.49 in1032.5 mb - 0.00 in0.0 mm 0.00 in0.0 mm
12:37 AM 38.7°F3.7°C 34.9°F1.6°C 86% Calm Calm -- 30.49 in1032.5 mb - 0.00 in0.0 mm 0.00 in0.0 mm
12:32 AM 38.8°F3.8°C 35.1°F1.7°C 86% Calm Calm -- 30.49 in1032.5 mb - 0.00 in0.0 mm 0.00 in0.0 mm
12:27 AM 39.0°F3.9°C 35.2°F1.8°C 86% Calm Calm -- 30.49 in1032.5 mb - 0.00 in0.0 mm 0.00 in0.0 mm
12:22 AM 38.8°F3.8°C 35.1°F1.7°C 86% Calm Calm -- 30.49 in1032.5 mb - 0.00 in0.0 mm 0.00 in0.0 mm
12:17 AM 38.8°F3.8°C 35.1°F1.7°C 86% Calm Calm -- 30.49 in1032.5 mb - 0.00 in0.0 mm 0.00 in0.0 mm
12:12 AM 39.0°F3.9°C 35.2°F1.8°C 86% Calm Calm -- 30.50 in1032.8 mb - 0.00 in0.0 mm 0.00 in0.0 mm
12:07 AM 39.0°F3.9°C 35.2°F1.8°C 86% Calm Calm -- 30.49 in1032.5 mb - 0.00 in0.0 mm 0.00 in0.0 mm
12:02 AM 39.0°F3.9°C 35.2°F1.8°C 86% Calm Calm -- 30.49 in1032.5 mb - 0.00 in0.0 mm 0.00 in0.0 mm